Terminal Aerodrome Forecast
Issued by NWS

Home | Current Version | Previous Version | Text Only | Print | Product List | Glossary On
Versions: 1 2 3 4 5 6 7 8 9 10 11 12 13
984
FTUS42 TJSJ 092338
TAFNCM
TAF
TNCM 092338Z 1000/1024 11010KT P6SM SCT022 SCT035
     FM101400 09013KT P6SM FEW025
     FM102200 08008KT P6SM SCT030=

USA.gov is the U.S. government's official web portal to all federal, state and local government web resources and services.